KBAF

Westfield-Barnes Regional Airport

Westfield/Springfield, Massachusetts, USA
METAR KBAF 231453Z 34011KT 10SM CLR 24/13 A2990 RMK AO2 SLP125 T02390128 53002
Observed Flight Rules
May-23 @ 14:53 UTC (9 minutes ago) Visual Flight Rules
Wind Visibility Clouds
340° at 11 knots 10 miles
  • Clear skies
Temperatures Readings
Current 24°C / 75°F
Dewpoint 13°C / 55°F
Humidity 50%
Altimeter 29.9" Hg
Pressure 1012.5 hPa
Elevation 83
METAR KBAF 231453Z 34011KT 10SM CLR 24/13 A2990 RMK AO2 SLP125 T02390128 53002
Observed Flight Rules
May-23 @ 14:53 UTC
(9 minutes ago)
VFR
Wind Visibility
340° at 11 knots 10 miles
Clouds
  • Clear skies
Temperature Dewpoint
24°C / 75°F 13°C / 55°F
Humidity Altimeter Pressure
50% 29.9" Hg 1012.5 hPa